sensor_id;sensor_type;location;lat;lon;timestamp;temperature;humidity
12981;DHT22;6555;50.468;8.480;2023-04-03T00:01:06;7.40;58.70
12981;DHT22;6555;50.468;8.480;2023-04-03T00:07:05;7.40;58.50
12981;DHT22;6555;50.468;8.480;2023-04-03T00:12:42;7.40;58.70
12981;DHT22;6555;50.468;8.480;2023-04-03T00:18:06;7.40;58.70
12981;DHT22;6555;50.468;8.480;2023-04-03T00:29:13;7.50;58.70
12981;DHT22;6555;50.468;8.480;2023-04-03T00:34:45;7.50;58.90
12981;DHT22;6555;50.468;8.480;2023-04-03T00:40:02;7.50;58.80
12981;DHT22;6555;50.468;8.480;2023-04-03T00:45:37;7.50;58.80
12981;DHT22;6555;50.468;8.480;2023-04-03T00:50:56;7.50;58.60
12981;DHT22;6555;50.468;8.480;2023-04-03T00:56:28;7.50;58.80
12981;DHT22;6555;50.468;8.480;2023-04-03T01:01:47;7.60;58.60
12981;DHT22;6555;50.468;8.480;2023-04-03T01:07:23;7.50;58.70
12981;DHT22;6555;50.468;8.480;2023-04-03T01:12:43;7.50;58.00
12981;DHT22;6555;50.468;8.480;2023-04-03T01:18:13;7.50;58.20
12981;DHT22;6555;50.468;8.480;2023-04-03T01:23:41;7.50;58.10
12981;DHT22;6555;50.468;8.480;2023-04-03T01:29:16;7.40;57.80
12981;DHT22;6555;50.468;8.480;2023-04-03T01:34:35;7.40;57.80
12981;DHT22;6555;50.468;8.480;2023-04-03T01:40:07;7.30;57.90
12981;DHT22;6555;50.468;8.480;2023-04-03T01:45:24;7.20;57.90
12981;DHT22;6555;50.468;8.480;2023-04-03T01:50:55;7.20;58.10
12981;DHT22;6555;50.468;8.480;2023-04-03T01:56:12;7.10;58.00
12981;DHT22;6555;50.468;8.480;2023-04-03T02:01:41;7.10;58.20
12981;DHT22;6555;50.468;8.480;2023-04-03T02:07:00;7.10;58.90
12981;DHT22;6555;50.468;8.480;2023-04-03T02:12:30;7.10;58.20
12981;DHT22;6555;50.468;8.480;2023-04-03T02:17:47;7.10;58.10
12981;DHT22;6555;50.468;8.480;2023-04-03T02:23:23;7.10;58.10
12981;DHT22;6555;50.468;8.480;2023-04-03T02:28:40;7.00;57.80
12981;DHT22;6555;50.468;8.480;2023-04-03T02:34:14;7.10;58.10
12981;DHT22;6555;50.468;8.480;2023-04-03T02:39:37;7.00;57.60
12981;DHT22;6555;50.468;8.480;2023-04-03T02:45:30;7.00;57.70
12981;DHT22;6555;50.468;8.480;2023-04-03T02:50:47;6.90;57.70
12981;DHT22;6555;50.468;8.480;2023-04-03T02:56:19;6.90;57.70
12981;DHT22;6555;50.468;8.480;2023-04-03T03:01:36;6.80;57.40
12981;DHT22;6555;50.468;8.480;2023-04-03T03:07:06;6.70;57.60
12981;DHT22;6555;50.468;8.480;2023-04-03T03:12:25;6.70;57.50
12981;DHT22;6555;50.468;8.480;2023-04-03T03:17:56;6.60;57.50
12981;DHT22;6555;50.468;8.480;2023-04-03T03:23:12;6.50;57.40
12981;DHT22;6555;50.468;8.480;2023-04-03T03:28:43;6.40;57.40
12981;DHT22;6555;50.468;8.480;2023-04-03T03:34:02;6.30;57.40
12981;DHT22;6555;50.468;8.480;2023-04-03T03:45:11;6.10;57.20
12981;DHT22;6555;50.468;8.480;2023-04-03T03:50:27;6.00;57.80
12981;DHT22;6555;50.468;8.480;2023-04-03T03:55:57;6.00;57.40
12981;DHT22;6555;50.468;8.480;2023-04-03T04:01:17;5.80;57.10
12981;DHT22;6555;50.468;8.480;2023-04-03T04:06:48;5.70;57.20
12981;DHT22;6555;50.468;8.480;2023-04-03T04:12:07;5.70;57.10
12981;DHT22;6555;50.468;8.480;2023-04-03T04:17:38;5.60;57.10
12981;DHT22;6555;50.468;8.480;2023-04-03T04:22:57;5.50;57.00
12981;DHT22;6555;50.468;8.480;2023-04-03T04:28:27;5.40;57.00
12981;DHT22;6555;50.468;8.480;2023-04-03T04:33:46;5.30;57.00
12981;DHT22;6555;50.468;8.480;2023-04-03T04:39:17;5.20;57.00
12981;DHT22;6555;50.468;8.480;2023-04-03T04:44:34;5.10;57.10
12981;DHT22;6555;50.468;8.480;2023-04-03T04:50:07;5.10;57.20
12981;DHT22;6555;50.468;8.480;2023-04-03T04:55:24;5.00;57.20
12981;DHT22;6555;50.468;8.480;2023-04-03T05:00:58;4.90;57.30
12981;DHT22;6555;50.468;8.480;2023-04-03T05:06:29;4.90;57.20
12981;DHT22;6555;50.468;8.480;2023-04-03T05:12:04;4.80;57.20
12981;DHT22;6555;50.468;8.480;2023-04-03T05:17:27;4.70;57.30
12981;DHT22;6555;50.468;8.480;2023-04-03T05:22:59;4.70;57.40
12981;DHT22;6555;50.468;8.480;2023-04-03T05:28:16;4.60;57.40
12981;DHT22;6555;50.468;8.480;2023-04-03T05:33:47;4.60;57.50
12981;DHT22;6555;50.468;8.480;2023-04-03T05:39:09;4.60;57.50
12981;DHT22;6555;50.468;8.480;2023-04-03T05:44:40;4.60;57.50
12981;DHT22;6555;50.468;8.480;2023-04-03T05:49:58;4.60;57.60
12981;DHT22;6555;50.468;8.480;2023-04-03T05:55:33;4.60;57.50
12981;DHT22;6555;50.468;8.480;2023-04-03T06:00:53;4.60;57.40
12981;DHT22;6555;50.468;8.480;2023-04-03T06:06:46;4.60;57.50
12981;DHT22;6555;50.468;8.480;2023-04-03T06:12:07;4.60;57.50
12981;DHT22;6555;50.468;8.480;2023-04-03T06:17:42;4.60;57.70
12981;DHT22;6555;50.468;8.480;2023-04-03T06:22:58;4.70;57.80
12981;DHT22;6555;50.468;8.480;2023-04-03T06:28:30;4.80;58.00
12981;DHT22;6555;50.468;8.480;2023-04-03T06:33:48;4.80;57.80
12981;DHT22;6555;50.468;8.480;2023-04-03T06:39:21;4.90;57.90
12981;DHT22;6555;50.468;8.480;2023-04-03T06:44:39;5.00;57.80
12981;DHT22;6555;50.468;8.480;2023-04-03T06:50:11;5.00;57.80
12981;DHT22;6555;50.468;8.480;2023-04-03T06:55:29;5.10;57.90
12981;DHT22;6555;50.468;8.480;2023-04-03T07:01:03;5.20;58.00
12981;DHT22;6555;50.468;8.480;2023-04-03T07:06:23;5.30;58.00
12981;DHT22;6555;50.468;8.480;2023-04-03T07:11:54;5.40;58.10
12981;DHT22;6555;50.468;8.480;2023-04-03T07:17:12;5.40;58.00
12981;DHT22;6555;50.468;8.480;2023-04-03T07:22:43;5.60;58.00
12981;DHT22;6555;50.468;8.480;2023-04-03T07:27:59;5.60;57.70
12981;DHT22;6555;50.468;8.480;2023-04-03T07:33:32;5.70;57.60
12981;DHT22;6555;50.468;8.480;2023-04-03T07:38:49;5.60;57.10
12981;DHT22;6555;50.468;8.480;2023-04-03T07:44:19;5.60;57.50
12981;DHT22;6555;50.468;8.480;2023-04-03T07:49:36;5.70;57.80
12981;DHT22;6555;50.468;8.480;2023-04-03T07:55:11;5.70;57.70
12981;DHT22;6555;50.468;8.480;2023-04-03T08:00:32;5.80;57.60
12981;DHT22;6555;50.468;8.480;2023-04-03T08:06:04;5.90;57.50
12981;DHT22;6555;50.468;8.480;2023-04-03T08:11:24;5.80;57.00
12981;DHT22;6555;50.468;8.480;2023-04-03T08:16:54;5.80;57.30
12981;DHT22;6555;50.468;8.480;2023-04-03T08:22:12;5.90;57.60
12981;DHT22;6555;50.468;8.480;2023-04-03T08:27:46;6.00;58.10
12981;DHT22;6555;50.468;8.480;2023-04-03T08:33:02;6.10;58.00
12981;DHT22;6555;50.468;8.480;2023-04-03T08:38:35;6.20;58.00
12981;DHT22;6555;50.468;8.480;2023-04-03T08:44:14;6.40;58.00
12981;DHT22;6555;50.468;8.480;2023-04-03T08:49:47;6.50;57.60
12981;DHT22;6555;50.468;8.480;2023-04-03T08:55:22;6.60;57.60
12981;DHT22;6555;50.468;8.480;2023-04-03T09:00:56;6.70;57.70
12981;DHT22;6555;50.468;8.480;2023-04-03T09:06:17;6.80;56.20
12981;DHT22;6555;50.468;8.480;2023-04-03T09:12:00;6.90;57.20
12981;DHT22;6555;50.468;8.480;2023-04-03T09:17:35;6.90;56.70
12981;DHT22;6555;50.468;8.480;2023-04-03T09:23:18;7.10;57.30
12981;DHT22;6555;50.468;8.480;2023-04-03T09:28:39;7.40;57.10
12981;DHT22;6555;50.468;8.480;2023-04-03T09:34:15;7.50;57.40
12981;DHT22;6555;50.468;8.480;2023-04-03T09:39:50;7.70;57.00
12981;DHT22;6555;50.468;8.480;2023-04-03T09:45:26;7.70;56.20
12981;DHT22;6555;50.468;8.480;2023-04-03T09:50:54;7.80;56.20
12981;DHT22;6555;50.468;8.480;2023-04-03T09:56:28;7.80;53.30
12981;DHT22;6555;50.468;8.480;2023-04-03T10:01:57;7.80;55.60
12981;DHT22;6555;50.468;8.480;2023-04-03T10:07:33;8.00;55.70
12981;DHT22;6555;50.468;8.480;2023-04-03T10:13:06;8.20;55.90
12981;DHT22;6555;50.468;8.480;2023-04-03T10:18:44;8.40;56.10
12981;DHT22;6555;50.468;8.480;2023-04-03T10:24:09;8.50;55.30
12981;DHT22;6555;50.468;8.480;2023-04-03T10:29:45;8.60;54.00
12981;DHT22;6555;50.468;8.480;2023-04-03T10:35:30;8.70;53.60
12981;DHT22;6555;50.468;8.480;2023-04-03T10:41:07;8.90;54.30
12981;DHT22;6555;50.468;8.480;2023-04-03T10:46:34;9.00;52.80
12981;DHT22;6555;50.468;8.480;2023-04-03T10:52:13;9.10;50.60
12981;DHT22;6555;50.468;8.480;2023-04-03T10:57:32;9.20;52.60
12981;DHT22;6555;50.468;8.480;2023-04-03T11:03:05;9.30;52.60
12981;DHT22;6555;50.468;8.480;2023-04-03T11:08:33;9.40;49.70
12981;DHT22;6555;50.468;8.480;2023-04-03T11:14:09;9.40;48.60
12981;DHT22;6555;50.468;8.480;2023-04-03T11:19:36;9.40;52.00
12981;DHT22;6555;50.468;8.480;2023-04-03T11:25:15;9.30;49.90
12981;DHT22;6555;50.468;8.480;2023-04-03T11:30:49;9.30;49.10
12981;DHT22;6555;50.468;8.480;2023-04-03T11:36:18;9.40;52.00
12981;DHT22;6555;50.468;8.480;2023-04-03T11:41:52;9.60;52.60
12981;DHT22;6555;50.468;8.480;2023-04-03T11:47:45;9.70;52.00
12981;DHT22;6555;50.468;8.480;2023-04-03T11:53:34;9.90;52.30
12981;DHT22;6555;50.468;8.480;2023-04-03T11:59:16;10.00;47.10
12981;DHT22;6555;50.468;8.480;2023-04-03T12:05:25;10.10;48.50
12981;DHT22;6555;50.468;8.480;2023-04-03T12:11:14;10.20;48.80
12981;DHT22;6555;50.468;8.480;2023-04-03T12:16:48;10.30;50.90
12981;DHT22;6555;50.468;8.480;2023-04-03T12:22:13;10.40;49.80
12981;DHT22;6555;50.468;8.480;2023-04-03T12:27:46;10.40;51.30
12981;DHT22;6555;50.468;8.480;2023-04-03T12:33:18;10.50;47.70
12981;DHT22;6555;50.468;8.480;2023-04-03T12:39:01;10.60;42.30
12981;DHT22;6555;50.468;8.480;2023-04-03T12:44:31;10.50;46.90
12981;DHT22;6555;50.468;8.480;2023-04-03T12:50:18;10.50;49.70
12981;DHT22;6555;50.468;8.480;2023-04-03T12:55:38;10.70;46.80
12981;DHT22;6555;50.468;8.480;2023-04-03T13:01:14;10.80;49.30
12981;DHT22;6555;50.468;8.480;2023-04-03T13:06:39;11.00;49.50
12981;DHT22;6555;50.468;8.480;2023-04-03T13:12:12;11.20;48.80
12981;DHT22;6555;50.468;8.480;2023-04-03T13:17:29;11.20;45.30
12981;DHT22;6555;50.468;8.480;2023-04-03T13:23:03;11.10;44.10
12981;DHT22;6555;50.468;8.480;2023-04-03T13:28:27;10.80;42.10
12981;DHT22;6555;50.468;8.480;2023-04-03T13:34:02;10.70;45.40
12981;DHT22;6555;50.468;8.480;2023-04-03T13:39:23;10.70;45.50
12981;DHT22;6555;50.468;8.480;2023-04-03T13:45:10;10.90;48.30
12981;DHT22;6555;50.468;8.480;2023-04-03T13:50:27;11.10;47.40
12981;DHT22;6555;50.468;8.480;2023-04-03T13:56:06;11.20;45.70
12981;DHT22;6555;50.468;8.480;2023-04-03T14:01:24;11.30;47.20
12981;DHT22;6555;50.468;8.480;2023-04-03T14:06:54;11.30;48.40
12981;DHT22;6555;50.468;8.480;2023-04-03T14:12:16;11.40;48.30
12981;DHT22;6555;50.468;8.480;2023-04-03T14:17:47;11.50;43.30
12981;DHT22;6555;50.468;8.480;2023-04-03T14:23:08;11.60;48.00
12981;DHT22;6555;50.468;8.480;2023-04-03T14:28:39;11.70;48.60
12981;DHT22;6555;50.468;8.480;2023-04-03T14:33:57;11.80;44.80
12981;DHT22;6555;50.468;8.480;2023-04-03T14:39:27;11.90;48.10
12981;DHT22;6555;50.468;8.480;2023-04-03T14:44:47;11.80;38.40
12981;DHT22;6555;50.468;8.480;2023-04-03T14:50:20;11.60;40.40
12981;DHT22;6555;50.468;8.480;2023-04-03T14:55:37;11.40;43.50
12981;DHT22;6555;50.468;8.480;2023-04-03T15:01:16;11.40;46.80
12981;DHT22;6555;50.468;8.480;2023-04-03T15:06:32;11.60;47.10
12981;DHT22;6555;50.468;8.480;2023-04-03T15:12:04;11.70;47.20
12981;DHT22;6555;50.468;8.480;2023-04-03T15:17:23;11.90;46.90
12981;DHT22;6555;50.468;8.480;2023-04-03T15:22:56;11.90;47.00
12981;DHT22;6555;50.468;8.480;2023-04-03T15:28:21;11.80;42.80
12981;DHT22;6555;50.468;8.480;2023-04-03T15:33:53;11.70;46.40
12981;DHT22;6555;50.468;8.480;2023-04-03T15:39:10;11.60;45.60
12981;DHT22;6555;50.468;8.480;2023-04-03T15:44:40;11.40;39.50
12981;DHT22;6555;50.468;8.480;2023-04-03T15:49:57;11.10;40.70
12981;DHT22;6555;50.468;8.480;2023-04-03T15:55:31;10.90;42.70
12981;DHT22;6555;50.468;8.480;2023-04-03T16:00:50;10.70;44.70
12981;DHT22;6555;50.468;8.480;2023-04-03T16:06:27;10.70;43.40
12981;DHT22;6555;50.468;8.480;2023-04-03T16:11:45;10.60;42.60
12981;DHT22;6555;50.468;8.480;2023-04-03T16:23:07;10.30;43.30
12981;DHT22;6555;50.468;8.480;2023-04-03T16:28:58;10.20;45.20
12981;DHT22;6555;50.468;8.480;2023-04-03T16:34:52;10.20;45.70
12981;DHT22;6555;50.468;8.480;2023-04-03T16:46:39;10.30;45.40
12981;DHT22;6555;50.468;8.480;2023-04-03T16:52:50;10.40;45.20
12981;DHT22;6555;50.468;8.480;2023-04-03T17:05:30;10.20;43.70
12981;DHT22;6555;50.468;8.480;2023-04-03T17:11:31;9.80;43.50
12981;DHT22;6555;50.468;8.480;2023-04-03T17:46:21;9.60;44.50
12981;DHT22;6555;50.468;8.480;2023-04-03T18:11:45;8.90;45.20
12981;DHT22;6555;50.468;8.480;2023-04-03T18:17:34;8.80;45.70
12981;DHT22;6555;50.468;8.480;2023-04-03T18:22:40;8.60;46.30
12981;DHT22;6555;50.468;8.480;2023-04-03T18:28:03;8.60;46.60
12981;DHT22;6555;50.468;8.480;2023-04-03T18:33:07;8.60;46.30
12981;DHT22;6555;50.468;8.480;2023-04-03T18:38:14;8.50;46.70
12981;DHT22;6555;50.468;8.480;2023-04-03T18:43:26;8.50;46.70
12981;DHT22;6555;50.468;8.480;2023-04-03T18:55:24;8.20;46.60
12981;DHT22;6555;50.468;8.480;2023-04-03T20:07:10;7.00;45.30
12981;DHT22;6555;50.468;8.480;2023-04-03T20:12:41;6.80;45.50
12981;DHT22;6555;50.468;8.480;2023-04-03T20:18:08;6.80;45.50
12981;DHT22;6555;50.468;8.480;2023-04-03T20:23:44;6.70;45.70
12981;DHT22;6555;50.468;8.480;2023-04-03T20:29:01;6.50;45.70
12981;DHT22;6555;50.468;8.480;2023-04-03T20:34:35;6.50;46.30
12981;DHT22;6555;50.468;8.480;2023-04-03T20:40:10;6.40;46.10
12981;DHT22;6555;50.468;8.480;2023-04-03T20:45:40;6.30;45.70
12981;DHT22;6555;50.468;8.480;2023-04-03T20:51:08;6.20;45.60
12981;DHT22;6555;50.468;8.480;2023-04-03T20:56:39;5.90;45.80
12981;DHT22;6555;50.468;8.480;2023-04-03T21:01:58;5.70;45.50
12981;DHT22;6555;50.468;8.480;2023-04-03T21:19:33;5.20;44.20
12981;DHT22;6555;50.468;8.480;2023-04-03T21:25:07;5.00;44.80
12981;DHT22;6555;50.468;8.480;2023-04-03T21:30:24;4.90;45.00
12981;DHT22;6555;50.468;8.480;2023-04-03T21:36:04;4.90;45.20
12981;DHT22;6555;50.468;8.480;2023-04-03T21:41:24;4.80;45.50
12981;DHT22;6555;50.468;8.480;2023-04-03T21:46:55;4.80;45.90
12981;DHT22;6555;50.468;8.480;2023-04-03T21:52:15;4.70;46.10
12981;DHT22;6555;50.468;8.480;2023-04-03T21:57:49;4.70;46.30
12981;DHT22;6555;50.468;8.480;2023-04-03T22:03:18;4.70;46.40
12981;DHT22;6555;50.468;8.480;2023-04-03T22:08:57;4.70;46.50
12981;DHT22;6555;50.468;8.480;2023-04-03T22:14:17;4.70;46.60
12981;DHT22;6555;50.468;8.480;2023-04-03T22:20:26;4.70;46.90
12981;DHT22;6555;50.468;8.480;2023-04-03T22:26:34;4.80;46.80
12981;DHT22;6555;50.468;8.480;2023-04-03T22:31:39;4.90;47.00
12981;DHT22;6555;50.468;8.480;2023-04-03T22:36:43;4.90;47.00
12981;DHT22;6555;50.468;8.480;2023-04-03T22:41:48;4.90;47.80
12981;DHT22;6555;50.468;8.480;2023-04-03T22:46:53;4.90;47.10
12981;DHT22;6555;50.468;8.480;2023-04-03T22:51:56;4.90;47.20
12981;DHT22;6555;50.468;8.480;2023-04-03T22:57:01;5.00;47.20
12981;DHT22;6555;50.468;8.480;2023-04-03T23:02:11;4.90;47.20
12981;DHT22;6555;50.468;8.480;2023-04-03T23:07:14;5.00;47.10
12981;DHT22;6555;50.468;8.480;2023-04-03T23:12:19;4.90;47.10
12981;DHT22;6555;50.468;8.480;2023-04-03T23:17:23;4.90;47.00
12981;DHT22;6555;50.468;8.480;2023-04-03T23:22:27;4.80;47.10
12981;DHT22;6555;50.468;8.480;2023-04-03T23:27:32;4.70;47.10
12981;DHT22;6555;50.468;8.480;2023-04-03T23:32:40;4.60;47.10
12981;DHT22;6555;50.468;8.480;2023-04-03T23:37:44;4.60;47.20
12981;DHT22;6555;50.468;8.480;2023-04-03T23:42:48;4.60;47.20
12981;DHT22;6555;50.468;8.480;2023-04-03T23:47:52;4.50;47.20
12981;DHT22;6555;50.468;8.480;2023-04-03T23:52:56;4.50;47.30
12981;DHT22;6555;50.468;8.480;2023-04-03T23:58:01;4.50;47.30
